createdAt,value
2023-05-02T00:02:26.683Z,13.25
2023-05-02T00:04:54.581Z,13.31
2023-05-02T00:07:22.969Z,13.36
2023-05-02T00:09:51.345Z,13.41
2023-05-02T00:12:19.281Z,13.45
2023-05-02T00:14:47.130Z,13.51
2023-05-02T00:17:19.854Z,13.57
2023-05-02T00:19:48.078Z,13.64
2023-05-02T00:22:16.096Z,13.70
2023-05-02T00:24:44.275Z,13.78
2023-05-02T00:27:12.241Z,13.85
2023-05-02T00:29:41.439Z,13.93
2023-05-02T00:32:09.322Z,13.99
2023-05-02T00:34:37.214Z,14.04
2023-05-02T00:37:05.157Z,14.09
2023-05-02T00:39:34.964Z,14.14
2023-05-02T00:42:03.202Z,14.19
2023-05-02T00:44:31.412Z,14.24
2023-05-02T00:47:01.850Z,14.29
2023-05-02T00:49:31.261Z,14.34
2023-05-02T00:51:59.455Z,14.38
2023-05-02T00:54:27.723Z,14.42
2023-05-02T00:56:55.588Z,14.45
2023-05-02T00:59:23.761Z,14.47
2023-05-02T01:02:08.307Z,14.49
2023-05-02T01:04:58.036Z,14.51
2023-05-02T01:07:43.962Z,14.52
2023-05-02T01:10:30.478Z,14.53
2023-05-02T01:13:00.705Z,14.54
2023-05-02T01:15:29.575Z,14.55
2023-05-02T01:18:00.888Z,14.57
2023-05-02T01:20:31.248Z,14.57
2023-05-02T01:23:04.909Z,14.58
2023-05-02T01:25:51.238Z,14.59
2023-05-02T01:28:49.826Z,14.58
2023-05-02T01:31:18.305Z,14.58
2023-05-02T01:33:48.006Z,14.57
2023-05-02T01:36:17.621Z,14.56
2023-05-02T01:38:45.767Z,14.55
2023-05-02T01:41:14.409Z,14.54
2023-05-02T01:43:43.496Z,14.53
2023-05-02T01:46:14.499Z,14.52
2023-05-02T01:48:45.694Z,14.51
2023-05-02T01:51:17.320Z,14.50
2023-05-02T01:53:49.667Z,14.50
2023-05-02T01:56:19.638Z,14.49
2023-05-02T01:58:51.210Z,14.48
2023-05-02T02:01:21.837Z,14.47
2023-05-02T02:03:49.990Z,14.47
2023-05-02T02:06:19.476Z,14.48
2023-05-02T02:08:47.682Z,14.49
2023-05-02T02:11:22.643Z,14.50
2023-05-02T02:14:01.175Z,14.51
2023-05-02T02:16:32.669Z,14.51
2023-05-02T02:19:07.227Z,14.51
2023-05-02T02:21:38.437Z,14.52
2023-05-02T02:24:07.792Z,14.52
2023-05-02T02:26:36.944Z,14.51
2023-05-02T02:29:05.083Z,14.49
2023-05-02T02:31:34.443Z,14.48
2023-05-02T02:34:03.607Z,14.47
2023-05-02T02:36:40.656Z,14.45
2023-05-02T02:39:18.127Z,14.44
2023-05-02T02:42:14.367Z,14.42
2023-05-02T02:44:56.558Z,14.40
2023-05-02T02:47:44.374Z,14.38
2023-05-02T02:50:48.096Z,14.37
2023-05-02T02:53:21.329Z,14.36
2023-05-02T02:56:05.119Z,14.34
2023-05-02T02:58:51.998Z,14.31
2023-05-02T03:01:22.549Z,14.29
2023-05-02T03:03:52.084Z,14.28
2023-05-02T03:06:21.357Z,14.27
2023-05-02T03:08:49.452Z,14.27
2023-05-02T03:11:18.731Z,14.24
2023-05-02T03:13:47.371Z,14.21
2023-05-02T03:16:33.936Z,14.18
2023-05-02T03:19:03.427Z,14.16
2023-05-02T03:21:32.076Z,14.13
2023-05-02T03:24:03.990Z,14.09
2023-05-02T03:26:31.992Z,14.06
2023-05-02T03:29:01.293Z,14.06
2023-05-02T03:31:32.167Z,14.07
2023-05-02T03:34:01.052Z,14.07
2023-05-02T03:36:29.166Z,14.03
2023-05-02T03:38:57.225Z,13.99
2023-05-02T03:41:25.600Z,13.96
2023-05-02T03:43:57.380Z,13.96
2023-05-02T03:46:25.853Z,13.98
2023-05-02T03:48:54.325Z,13.98
2023-05-02T03:51:22.308Z,13.97
2023-05-02T03:53:50.901Z,13.97
2023-05-02T03:56:23.317Z,13.96
2023-05-02T03:58:57.987Z,13.96
2023-05-02T04:01:26.359Z,13.96
2023-05-02T04:03:55.936Z,13.97
2023-05-02T04:06:26.107Z,13.98
2023-05-02T04:08:59.606Z,13.99
2023-05-02T04:11:32.251Z,14.01
2023-05-02T04:14:00.471Z,14.01
2023-05-02T04:16:28.537Z,14.02
2023-05-02T04:18:56.742Z,14.04
2023-05-02T04:21:25.073Z,14.05
2023-05-02T04:23:53.546Z,14.07
2023-05-02T04:26:21.842Z,14.08
2023-05-02T04:28:55.559Z,14.11
2023-05-02T04:31:23.543Z,14.13
2023-05-02T04:33:52.067Z,14.15
2023-05-02T04:36:24.919Z,14.18
2023-05-02T04:38:52.862Z,14.21
2023-05-02T04:41:21.542Z,14.24
2023-05-02T04:43:55.826Z,14.28
2023-05-02T04:46:23.973Z,14.32
2023-05-02T04:48:51.926Z,14.36
2023-05-02T04:51:20.826Z,14.41
2023-05-02T04:53:50.519Z,14.46
2023-05-02T04:56:18.597Z,14.53
2023-05-02T04:58:47.538Z,14.61
2023-05-02T05:01:15.686Z,14.66
2023-05-02T05:03:43.963Z,14.71
2023-05-02T05:06:12.730Z,14.77
2023-05-02T05:08:40.805Z,14.83
2023-05-02T05:11:08.910Z,14.91
2023-05-02T05:13:37.620Z,14.97
2023-05-02T05:16:07.139Z,15.02
2023-05-02T05:18:41.706Z,15.07
2023-05-02T05:21:12.331Z,15.14
2023-05-02T05:23:46.049Z,15.21
2023-05-02T05:26:17.536Z,15.30
2023-05-02T05:28:50.376Z,15.39
2023-05-02T05:31:18.916Z,15.48
2023-05-02T05:33:53.505Z,15.56
2023-05-02T05:36:23.653Z,15.65
2023-05-02T05:38:52.335Z,15.73
2023-05-02T05:41:21.112Z,15.82
2023-05-02T05:43:53.040Z,15.88
2023-05-02T05:46:21.438Z,15.92
2023-05-02T05:48:49.398Z,15.99
2023-05-02T05:51:17.436Z,16.06
2023-05-02T05:53:45.565Z,16.12
2023-05-02T05:56:14.403Z,16.17
2023-05-02T05:58:47.797Z,16.24
2023-05-02T06:01:16.070Z,16.30
2023-05-02T06:03:44.286Z,16.35
2023-05-02T06:06:12.608Z,16.40
2023-05-02T06:08:40.562Z,16.46
2023-05-02T06:11:12.073Z,16.53
2023-05-02T06:13:40.078Z,16.61
2023-05-02T06:16:08.849Z,16.68
2023-05-02T06:18:36.898Z,16.75
2023-05-02T06:21:06.183Z,16.83
2023-05-02T06:23:34.658Z,16.91
2023-05-02T06:26:04.770Z,16.99
2023-05-02T06:28:32.701Z,17.06
2023-05-02T06:31:02.386Z,17.11
2023-05-02T06:33:31.226Z,17.15
2023-05-02T06:36:01.403Z,17.21
2023-05-02T06:38:30.317Z,17.27
2023-05-02T06:40:58.226Z,17.35
2023-05-02T06:43:26.237Z,17.41
2023-05-02T06:45:56.583Z,17.51
2023-05-02T06:48:24.616Z,17.62
2023-05-02T06:50:55.893Z,17.74
2023-05-02T06:53:23.726Z,17.90
2023-05-02T06:55:52.117Z,18.07
2023-05-02T06:58:19.965Z,18.27
2023-05-02T07:00:48.988Z,18.49
2023-05-02T07:03:17.056Z,18.74
2023-05-02T07:05:45.130Z,18.99
2023-05-02T07:08:13.065Z,19.21
2023-05-02T07:10:41.125Z,19.37
2023-05-02T07:13:09.044Z,19.51
2023-05-02T07:15:37.164Z,19.68
2023-05-02T07:18:05.240Z,19.90
2023-05-02T07:20:33.451Z,20.11
2023-05-02T07:23:01.307Z,20.34
2023-05-02T07:25:29.322Z,20.59
2023-05-02T07:27:57.249Z,20.71
2023-05-02T07:30:25.253Z,20.78
2023-05-02T07:32:53.224Z,20.76
2023-05-02T07:35:21.217Z,20.84
2023-05-02T07:37:49.058Z,21.01
2023-05-02T07:40:17.009Z,21.17
2023-05-02T07:42:44.968Z,21.32
2023-05-02T07:45:13.750Z,21.38
2023-05-02T07:47:42.069Z,21.42
2023-05-02T07:50:10.993Z,21.37
2023-05-02T07:52:38.942Z,21.41
2023-05-02T07:55:07.576Z,21.53
2023-05-02T07:57:35.588Z,21.59
2023-05-02T08:00:04.613Z,21.71
2023-05-02T08:02:45.459Z,21.80
2023-05-02T08:05:13.638Z,21.86
2023-05-02T08:07:41.636Z,21.89
2023-05-02T08:10:10.548Z,21.89
2023-05-02T08:12:40.369Z,21.91
2023-05-02T08:15:11.657Z,21.91
2023-05-02T08:17:39.612Z,21.94
2023-05-02T08:20:08.059Z,21.99
2023-05-02T08:22:36.067Z,22.06
2023-05-02T08:25:04.197Z,22.17
2023-05-02T08:27:32.026Z,22.29
2023-05-02T08:30:01.056Z,22.31
2023-05-02T08:32:30.143Z,22.28
2023-05-02T08:34:58.145Z,22.25
2023-05-02T08:37:26.166Z,22.24
2023-05-02T08:39:54.249Z,22.21
2023-05-02T08:42:22.646Z,22.21
2023-05-02T08:44:51.011Z,22.18
2023-05-02T08:47:19.778Z,22.12
2023-05-02T08:49:50.102Z,22.17
2023-05-02T08:52:20.756Z,22.21
2023-05-02T08:54:51.563Z,22.28
2023-05-02T08:57:19.724Z,22.34
2023-05-02T08:59:48.690Z,22.42
2023-05-02T09:02:28.352Z,22.48
2023-05-02T09:05:01.868Z,22.55
2023-05-02T09:07:30.287Z,22.58
2023-05-02T09:09:58.462Z,22.59
2023-05-02T09:12:27.355Z,22.57
2023-05-02T09:15:19.886Z,22.49
2023-05-02T09:17:49.387Z,22.45
2023-05-02T09:20:17.418Z,22.52
2023-05-02T09:22:51.029Z,22.60
2023-05-02T09:25:21.859Z,22.69
2023-05-02T09:27:52.030Z,22.72
2023-05-02T09:30:24.919Z,22.78
2023-05-02T09:32:55.804Z,22.86
2023-05-02T09:35:24.438Z,22.79
2023-05-02T09:37:54.151Z,22.73
2023-05-02T09:40:23.328Z,22.84
2023-05-02T09:42:52.417Z,23.00
2023-05-02T09:45:25.296Z,23.09
2023-05-02T09:47:53.766Z,23.14
2023-05-02T09:50:38.007Z,23.17
2023-05-02T09:53:09.955Z,23.31
2023-05-02T09:55:38.007Z,23.45
2023-05-02T09:58:06.646Z,23.39
2023-05-02T10:00:42.772Z,23.33
2023-05-02T10:03:11.747Z,23.42
2023-05-02T10:05:41.045Z,23.58
2023-05-02T10:08:10.382Z,23.75
2023-05-02T10:10:41.094Z,23.93
2023-05-02T10:13:10.011Z,24.08
2023-05-02T10:15:43.554Z,24.15
2023-05-02T10:18:21.405Z,24.20
2023-05-02T10:20:57.139Z,24.24
2023-05-02T10:23:29.745Z,24.34
2023-05-02T10:26:00.106Z,24.44
2023-05-02T10:28:30.126Z,24.52
2023-05-02T10:31:00.986Z,24.61
2023-05-02T10:33:31.592Z,24.53
2023-05-02T10:35:59.720Z,24.24
2023-05-02T10:38:27.758Z,24.08
2023-05-02T10:41:24.654Z,23.77
2023-05-02T10:43:53.323Z,22.93
2023-05-02T10:46:42.110Z,22.39
2023-05-02T10:49:12.081Z,22.16
2023-05-02T10:51:41.990Z,21.80
2023-05-02T10:54:25.792Z,21.41
2023-05-02T10:57:09.306Z,21.18
2023-05-02T10:59:39.354Z,20.93
2023-05-02T11:02:27.859Z,20.84
2023-05-02T11:05:04.829Z,21.00
2023-05-02T11:07:37.696Z,21.12
2023-05-02T11:10:17.983Z,21.17
2023-05-02T11:12:49.747Z,21.17
2023-05-02T11:15:40.800Z,21.07
2023-05-02T11:18:09.636Z,20.80
2023-05-02T11:20:40.029Z,20.51
2023-05-02T11:23:14.587Z,20.36
2023-05-02T11:25:47.468Z,20.11
2023-05-02T11:28:37.393Z,19.91
2023-05-02T11:31:10.932Z,19.66
2023-05-02T11:33:38.980Z,19.61
2023-05-02T11:36:07.155Z,19.85
2023-05-02T11:38:38.346Z,20.06
2023-05-02T11:41:06.503Z,20.18
2023-05-02T11:43:34.913Z,20.09
2023-05-02T11:46:05.094Z,20.13
2023-05-02T11:48:33.174Z,20.07
2023-05-02T11:51:05.727Z,20.08
2023-05-02T11:53:33.909Z,20.11
2023-05-02T11:56:04.641Z,20.15
2023-05-02T11:58:33.753Z,20.26
2023-05-02T12:01:13.729Z,20.34
2023-05-02T12:03:42.288Z,20.29
2023-05-02T12:06:13.430Z,20.25
2023-05-02T12:08:43.701Z,20.35
2023-05-02T12:11:16.400Z,20.50
2023-05-02T12:13:49.993Z,20.56
2023-05-02T12:16:19.657Z,20.68
2023-05-02T12:18:48.266Z,20.64
2023-05-02T12:21:17.966Z,20.68
2023-05-02T12:23:46.510Z,20.83
2023-05-02T12:26:18.702Z,20.84
2023-05-02T12:28:54.911Z,20.72
2023-05-02T12:31:23.884Z,20.46
2023-05-02T12:33:52.712Z,20.11
2023-05-02T12:36:20.854Z,19.90
2023-05-02T12:38:53.781Z,19.73
2023-05-02T12:41:32.635Z,19.58
2023-05-02T12:44:01.100Z,19.50
2023-05-02T12:46:29.721Z,19.55
2023-05-02T12:49:05.922Z,19.75
2023-05-02T12:51:34.649Z,19.86
2023-05-02T12:54:03.803Z,19.83
2023-05-02T12:56:39.694Z,19.71
2023-05-02T12:59:08.231Z,19.71
2023-05-02T13:01:36.556Z,19.69
2023-05-02T13:04:05.765Z,19.62
2023-05-02T13:06:34.064Z,19.54
2023-05-02T13:09:02.059Z,19.54
2023-05-02T13:11:30.127Z,19.57
2023-05-02T13:14:00.296Z,19.70
2023-05-02T13:16:30.308Z,19.83
2023-05-02T13:18:58.507Z,19.93
2023-05-02T13:21:26.583Z,20.05
2023-05-02T13:23:55.446Z,20.15
2023-05-02T13:26:23.331Z,20.16
2023-05-02T13:28:51.305Z,20.13
2023-05-02T13:31:19.261Z,19.97
2023-05-02T13:33:47.162Z,19.75
2023-05-02T13:36:15.175Z,19.59
2023-05-02T13:38:43.202Z,19.52
2023-05-02T13:41:11.181Z,19.58
2023-05-02T13:43:40.777Z,19.62
2023-05-02T13:46:09.330Z,19.77
2023-05-02T13:48:37.532Z,19.89
2023-05-02T13:51:05.758Z,19.87
2023-05-02T13:53:33.716Z,19.89
2023-05-02T13:56:01.818Z,19.82
2023-05-02T13:58:29.732Z,19.70
2023-05-02T14:00:57.937Z,19.68
2023-05-02T14:03:26.034Z,19.71
2023-05-02T14:05:54.080Z,19.80
2023-05-02T14:08:22.047Z,19.84
2023-05-02T14:10:49.892Z,19.71
2023-05-02T14:13:17.766Z,19.66
2023-05-02T14:15:45.731Z,19.57
2023-05-02T14:18:13.773Z,19.44
2023-05-02T14:20:41.766Z,19.33
2023-05-02T14:23:09.895Z,19.31
2023-05-02T14:25:38.042Z,19.29
2023-05-02T14:28:06.010Z,19.14
2023-05-02T14:30:34.169Z,18.98
2023-05-02T14:33:02.250Z,18.92
2023-05-02T14:35:30.191Z,18.86
2023-05-02T14:37:58.066Z,18.82
2023-05-02T14:40:25.947Z,18.75
2023-05-02T14:42:53.821Z,18.75
2023-05-02T14:45:21.724Z,18.75
2023-05-02T14:47:50.510Z,18.69
2023-05-02T14:50:18.670Z,18.56
2023-05-02T14:52:46.564Z,18.51
2023-05-02T14:55:14.724Z,18.45
2023-05-02T14:57:42.590Z,18.43
2023-05-02T15:00:10.991Z,18.49
2023-05-02T15:02:39.340Z,18.51
2023-05-02T15:05:12.064Z,18.53
2023-05-02T15:07:40.530Z,18.58
2023-05-02T15:10:09.212Z,18.51
2023-05-02T15:12:37.244Z,18.56
2023-05-02T15:15:05.654Z,18.70
2023-05-02T15:17:33.599Z,18.78
2023-05-02T15:20:01.936Z,18.82
2023-05-02T15:22:30.235Z,18.80
2023-05-02T15:24:58.111Z,18.76
2023-05-02T15:27:26.061Z,18.69
2023-05-02T15:29:54.338Z,18.66
2023-05-02T15:32:22.622Z,18.70
2023-05-02T15:34:50.598Z,18.66
2023-05-02T15:37:18.460Z,18.59
2023-05-02T15:39:46.960Z,18.56
2023-05-02T15:42:14.892Z,18.53
2023-05-02T15:44:42.807Z,18.48
2023-05-02T15:47:10.763Z,18.46
2023-05-02T15:49:38.997Z,18.52
2023-05-02T15:52:07.061Z,18.52
2023-05-02T15:54:34.916Z,18.63
2023-05-02T15:57:02.996Z,18.71
2023-05-02T15:59:30.941Z,18.77
2023-05-02T16:01:58.944Z,18.80
2023-05-02T16:04:28.139Z,18.80
2023-05-02T16:06:56.157Z,18.79
2023-05-02T16:09:24.247Z,18.79
2023-05-02T16:11:52.099Z,18.72
2023-05-02T16:14:23.892Z,18.61
2023-05-02T16:16:51.821Z,18.56
2023-05-02T16:19:21.134Z,18.51
2023-05-02T16:21:49.085Z,18.44
2023-05-02T16:24:17.012Z,18.29
2023-05-02T16:26:45.527Z,18.07
2023-05-02T16:29:13.406Z,17.75
2023-05-02T16:31:43.615Z,17.58
2023-05-02T16:34:12.324Z,17.47
2023-05-02T16:36:40.352Z,17.36
2023-05-02T16:39:08.295Z,17.23
2023-05-02T16:41:36.228Z,17.15
2023-05-02T16:44:04.300Z,17.09
2023-05-02T16:46:32.885Z,16.98
2023-05-02T16:49:00.899Z,16.85
2023-05-02T16:51:31.336Z,16.77
2023-05-02T16:53:59.364Z,16.73
2023-05-02T16:56:27.270Z,16.78
2023-05-02T16:58:55.616Z,16.81
2023-05-02T17:01:23.780Z,16.84
2023-05-02T17:03:51.892Z,16.89
2023-05-02T17:06:19.875Z,16.88
2023-05-02T17:08:47.829Z,16.87
2023-05-02T17:11:17.500Z,16.85
2023-05-02T17:13:47.277Z,16.81
2023-05-02T17:16:17.842Z,16.76
2023-05-02T17:18:46.026Z,16.68
2023-05-02T17:21:14.742Z,16.62
2023-05-02T17:23:42.666Z,16.57
2023-05-02T17:26:16.655Z,16.54
2023-05-02T17:28:45.922Z,16.50
2023-05-02T17:31:14.066Z,16.42
2023-05-02T17:33:42.414Z,16.32
2023-05-02T17:36:10.700Z,16.27
2023-05-02T17:38:38.710Z,16.22
2023-05-02T17:41:06.621Z,16.17
2023-05-02T17:43:34.502Z,16.11
2023-05-02T17:46:08.418Z,16.07
2023-05-02T17:48:37.131Z,16.04
2023-05-02T17:51:05.656Z,16.04
2023-05-02T17:53:35.386Z,16.01
2023-05-02T17:56:04.061Z,15.98
2023-05-02T17:58:32.797Z,15.94
2023-05-02T18:01:11.303Z,15.92
2023-05-02T18:03:40.321Z,15.89
2023-05-02T18:06:08.509Z,15.84
2023-05-02T18:08:36.656Z,15.78
2023-05-02T18:11:04.639Z,15.71
2023-05-02T18:13:32.585Z,15.66
2023-05-02T18:16:04.754Z,15.60
2023-05-02T18:18:33.133Z,15.53
2023-05-02T18:21:01.099Z,15.48
2023-05-02T18:23:29.505Z,15.45
2023-05-02T18:25:57.510Z,15.41
2023-05-02T18:28:25.374Z,15.38
2023-05-02T18:30:53.328Z,15.36
2023-05-02T18:33:21.259Z,15.34
2023-05-02T18:35:49.295Z,15.34
2023-05-02T18:38:18.287Z,15.32
2023-05-02T18:40:46.332Z,15.28
2023-05-02T18:43:14.360Z,15.23
2023-05-02T18:45:44.306Z,15.17
2023-05-02T18:48:12.233Z,15.13
2023-05-02T18:50:40.425Z,15.09
2023-05-02T18:53:08.410Z,15.07
2023-05-02T18:55:36.324Z,15.03
2023-05-02T18:58:04.312Z,14.99
2023-05-02T19:00:34.354Z,14.93
2023-05-02T19:03:03.872Z,14.83
2023-05-02T19:05:34.683Z,14.75
2023-05-02T19:08:03.606Z,14.68
2023-05-02T19:10:32.455Z,14.58
2023-05-02T19:13:03.776Z,14.48
2023-05-02T19:15:33.662Z,14.35
2023-05-02T19:18:02.163Z,14.23
2023-05-02T19:20:30.268Z,14.11
2023-05-02T19:23:15.258Z,14.00
2023-05-02T19:25:46.751Z,13.89
2023-05-02T19:28:17.839Z,13.79
2023-05-02T19:30:45.883Z,13.71
2023-05-02T19:33:13.957Z,13.61
2023-05-02T19:35:42.282Z,13.53
2023-05-02T19:38:10.388Z,13.47
2023-05-02T19:40:38.263Z,13.43
2023-05-02T19:43:06.367Z,13.38
2023-05-02T19:45:34.372Z,13.33
2023-05-02T19:48:02.351Z,13.27
2023-05-02T19:50:30.523Z,13.25
2023-05-02T19:52:58.430Z,13.23
2023-05-02T19:55:26.369Z,13.21
2023-05-02T19:57:54.499Z,13.19
2023-05-02T20:00:22.971Z,13.18
2023-05-02T20:02:51.650Z,13.15
2023-05-02T20:05:20.023Z,13.12
2023-05-02T20:07:48.188Z,13.11
2023-05-02T20:10:18.361Z,13.11
2023-05-02T20:12:47.043Z,13.11
2023-05-02T20:15:18.301Z,13.12
2023-05-02T20:17:47.542Z,13.13
2023-05-02T20:20:15.799Z,13.17
2023-05-02T20:22:44.612Z,13.19
2023-05-02T20:25:12.636Z,13.21
2023-05-02T20:27:40.860Z,13.23
2023-05-02T20:30:09.771Z,13.22
2023-05-02T20:32:38.241Z,13.20
2023-05-02T20:35:07.195Z,13.20
2023-05-02T20:37:35.235Z,13.19
2023-05-02T20:40:05.420Z,13.19
2023-05-02T20:42:33.820Z,13.18
2023-05-02T20:45:02.755Z,13.15
2023-05-02T20:47:30.881Z,13.13
2023-05-02T20:49:59.178Z,13.10
2023-05-02T20:52:27.161Z,13.06
2023-05-02T20:54:55.998Z,13.03
2023-05-02T20:57:24.390Z,13.01
2023-05-02T20:59:52.253Z,13.00
2023-05-02T21:02:20.237Z,12.97
2023-05-02T21:04:48.173Z,12.94
2023-05-02T21:07:16.028Z,12.92
2023-05-02T21:09:43.888Z,12.89
2023-05-02T21:12:11.811Z,12.88
2023-05-02T21:14:39.748Z,12.88
2023-05-02T21:17:07.694Z,12.88
2023-05-02T21:19:37.431Z,12.88
2023-05-02T21:22:05.409Z,12.88
2023-05-02T21:24:33.525Z,12.88
2023-05-02T21:27:02.151Z,12.85
2023-05-02T21:29:30.314Z,12.80
2023-05-02T21:31:58.363Z,12.76
2023-05-02T21:34:26.298Z,12.71
2023-05-02T21:36:54.352Z,12.67
2023-05-02T21:39:22.336Z,12.67
2023-05-02T21:41:50.299Z,12.69
2023-05-02T21:44:18.522Z,12.68
2023-05-02T21:46:47.245Z,12.67
2023-05-02T21:49:15.305Z,12.64
2023-05-02T21:51:43.355Z,12.62
2023-05-02T21:54:11.648Z,12.61
2023-05-02T21:56:39.667Z,12.61
2023-05-02T21:59:07.590Z,12.59
2023-05-02T22:01:35.548Z,12.54
2023-05-02T22:04:03.655Z,12.53
2023-05-02T22:06:32.687Z,12.52
2023-05-02T22:09:00.639Z,12.51
2023-05-02T22:11:28.736Z,12.49
2023-05-02T22:13:56.952Z,12.46
2023-05-02T22:16:24.986Z,12.44
2023-05-02T22:18:52.855Z,12.43
2023-05-02T22:21:21.036Z,12.40
2023-05-02T22:23:48.963Z,12.37
2023-05-02T22:26:16.982Z,12.32
2023-05-02T22:28:44.876Z,12.29
2023-05-02T22:31:12.834Z,12.27
2023-05-02T22:33:49.680Z,12.25
2023-05-02T22:36:18.095Z,12.23
2023-05-02T22:38:46.095Z,12.16
2023-05-02T22:41:14.008Z,12.09
2023-05-02T22:43:41.993Z,12.06
2023-05-02T22:46:09.965Z,12.02
2023-05-02T22:48:38.041Z,11.97
2023-05-02T22:51:06.305Z,11.93
2023-05-02T23:05:47.581Z,11.76
2023-05-02T23:08:15.551Z,11.56
2023-05-02T23:10:43.642Z,11.45
2023-05-02T23:13:11.620Z,11.38
2023-05-02T23:15:40.279Z,11.35
2023-05-02T23:18:08.215Z,11.33
2023-05-02T23:20:36.264Z,11.25
2023-05-02T23:23:05.211Z,11.15
2023-05-02T23:25:34.877Z,11.03
2023-05-02T23:28:02.973Z,10.91
2023-05-02T23:30:31.983Z,10.82
2023-05-02T23:33:00.651Z,10.75
2023-05-02T23:35:29.013Z,10.68
2023-05-02T23:38:00.681Z,10.62
2023-05-02T23:40:28.660Z,10.57
2023-05-02T23:42:56.687Z,10.52
2023-05-02T23:45:24.671Z,10.49
2023-05-02T23:47:52.666Z,10.47
2023-05-02T23:50:20.729Z,10.44
2023-05-02T23:52:48.692Z,10.40
2023-05-02T23:55:16.809Z,10.37
2023-05-02T23:57:44.694Z,10.34
